• Join FlightAware (Why Join?)
  • Login
  • US Flag 
09:33AM EDT


 

Airport Tracker/Info


-or-


 

Live Flight TrackerFlight Track Log ✈ UAL4462 ✈ 05-May-2013 ✈ KOMA - KIAH

Flight Track Log - Related Links

Times and Time Zones

All times are in EDT time to prevent confusion due to time zone crossing. See the UAL4462 flight status page for this flight to view local times or setup timezone preferences in your user account.

Time Position Orientation Groundspeed Altitude Reporting Facility
EDT Latitude Longitude Course Direction KTS MPH feet Rate Location/Type
11:07AM 41.3153 -95.9144 201° Southwest 155 178 1,600  Level Minneapolis Center
11:08AM 41.3531 -95.9494 325° Northwest 182 209 3,100 1,980 Climbing Minneapolis Center
11:08AM 41.3600 -96.0231 277° West 243 280 5,200 1,320 Climbing Minneapolis Center
11:09AM 41.3617 -96.0431 276° West 211 243 4,500 2,040 Descending Minneapolis Center
11:09AM 41.3619 -96.1172 270° West 263 303 7,300 3,360 Climbing Minneapolis Center
11:10AM 40.9349 -95.8546 207° Southwest  Level FlightAware Approximate
11:10AM 41.3639 -96.1367 278° West 238 274 8,000  Level Minneapolis Center
11:11AM 40.8399 -95.9179 207° Southwest  Level FlightAware Approximate
11:11AM 41.3339 -96.2181 244° Southwest 247 284 9,900  Level Minneapolis Center
11:12AM 40.7415 -95.9710 201° Southwest  Level FlightAware Approximate
11:12AM 41.2728 -96.2856 220° Southwest 279 321 10,700  Level Minneapolis Center
11:13AM 41.1656 -96.3325 198° South 330 380 11,300 660 Climbing Minneapolis Center
11:14AM 41.0658 -96.3714 196° South 362 417 12,100 840 Climbing Minneapolis Center
11:15AM 40.9639 -96.4097 196° South 375 432 13,100 1,020 Climbing Minneapolis Center
11:16AM 40.8603 -96.4497 196° South 383 441 14,200 900 Climbing Minneapolis Center
11:17AM 40.7581 -96.4886 196° South 384 442 15,200 960 Climbing Minneapolis Center
11:18AM 40.6333 -96.5375 197° South 388 447 16,400 960 Climbing Minneapolis Center
11:19AM 40.5286 -96.5747 195° South 389 448 17,300 840 Climbing Minneapolis Center
11:20AM 40.4239 -96.6147 196° South 391 450 18,200 1,440 Climbing Minneapolis Center
11:21AM 40.2992 -96.6628 196° South 391 450 20,300 1,920 Climbing Minneapolis Center
11:22AM 40.2000 -96.6981 195° South 377 434 22,200 1,860 Climbing Minneapolis Center
11:23AM 40.1069 -96.7336 196° South 359 413 24,200 1,860 Climbing Minneapolis Center
11:24AM 40.0167 -96.7658 195° South 344 396 26,100 1,200 Climbing Minneapolis Center
11:25AM 39.9289 -96.7997 196° South 333 383 26,700 600 Climbing Minneapolis Center
11:26AM 39.8442 -96.8322 196° South 352 405 27,200 600 Climbing Kansas City Center
11:27AM 39.7436 -96.8692 196° South 365 420 27,800 480 Climbing Kansas City Center
11:28AM 39.6419 -96.9061 196° South 374 430 28,300 540 Climbing Kansas City Center
11:29AM 39.5378 -96.9439 196° South 384 442 29,000 660 Climbing Kansas City Center
11:30AM 39.4231 -96.9536 184° South 389 448 29,700 720 Climbing Kansas City Center
11:31AM 39.3178 -96.9533 180° South 392 451 30,500 840 Climbing Kansas City Center
11:32AM 39.1972 -96.9511 179° South 390 449 31,500 1,260 Climbing Kansas City Center
11:33AM 39.0939 -96.9519 180° South 389 448 33,200 1,500 Climbing Kansas City Center
11:34AM 38.9822 -96.9497 179° South 368 423 34,600 840 Climbing Kansas City Center
11:35AM 38.8808 -96.9500 180° South 365 420 35,000 180 Climbing Kansas City Center
11:36AM 38.7736 -96.9503 180° South 381 438 35,000  Level Kansas City Center
11:38AM 38.6608 -96.9489 179° South 402 463 35,000  Level Kansas City Center
11:39AM 38.5414 -96.9481 180° South 423 487 35,000  Level Kansas City Center
11:40AM 38.4192 -96.9467 179° South 436 502 35,000  Level Kansas City Center
11:41AM 38.2661 -96.9450 180° South 454 522 35,000  Level Kansas City Center
11:42AM 38.1358 -96.9433 179° South 462 532 35,000  Level Kansas City Center
11:43AM 38.0047 -96.9419 180° South 467 537 35,000  Level Kansas City Center
11:44AM 37.8725 -96.9400 179° South 471 542 35,000  Level Kansas City Center
11:45AM 37.7406 -96.9394 180° South 471 542 35,000  Level Kansas City Center
11:46AM 37.6067 -96.9378 179° South 477 549 35,000  Level Kansas City Center
11:47AM 37.4733 -96.9369 180° South 478 550 35,000  Level Kansas City Center
11:48AM 37.3383 -96.9372 180° South 481 554 35,000 60 Level Kansas City Center
11:49AM 37.1742 -96.9367 180° South 487 560 35,200 300 Climbing Kansas City Center
11:50AM 37.0381 -96.9367 180° South 487 560 35,700 360 Climbing Kansas City Center
11:51AM 36.9031 -96.9342 179° South 485 558 36,000 120 Climbing Kansas City Center
11:52AM 36.7761 -96.9311 179° South 478 550 36,000  Level Kansas City Center
11:53AM 36.6381 -96.9311 180° South 488 562 36,000  Level Kansas City Center
11:54AM 36.4942 -96.9311 180° South 488 562 36,000  Level Kansas City Center
11:55AM 36.3586 -96.9286 179° South 487 560 36,000  Level Kansas City Center
11:56AM 36.1953 -96.9272 180° South 487 560 36,000  Level Kansas City Center
11:57AM 36.0597 -96.9269 180° South 486 559 36,000  Level Kansas City Center
11:58AM 35.9247 -96.9267 180° South 484 557 36,000  Level Kansas City Center
11:59AM 35.7889 -96.9244 179° South 486 559 36,000  Level Kansas City Center
12:00PM 35.6531 -96.9233 180° South 485 558 36,000  Level Kansas City Center
12:01PM 35.5075 -96.9214 179° South 484 557 36,000  Level Fort Worth Center
12:02PM 35.3739 -96.9197 179° South 484 557 36,000 180 Level Fort Worth Center
12:03PM 35.2383 -96.9206 180° South 484 557 36,400 480 Climbing Fort Worth Center
12:04PM 35.1092 -96.9211 180° South 484 557 37,000 300 Climbing Fort Worth Center
12:05PM 34.9797 -96.9194 179° South 473 544 37,000  Level Fort Worth Center
12:06PM 34.8483 -96.9203 180° South 473 544 37,000  Level Fort Worth Center
12:07PM 34.7169 -96.9183 179° South 473 544 37,000  Level Fort Worth Center
12:08PM 34.5814 -96.9192 180° South 478 550 37,000  Level Fort Worth Center
12:09PM 34.4500 -96.9175 179° South 478 550 37,000  Level Fort Worth Center
12:10PM 34.3206 -96.9156 179° South 478 550 37,000  Level Fort Worth Center
12:11PM 34.1869 -96.9164 180° South 478 550 37,000  Level Fort Worth Center
12:12PM 34.0556 -96.9119 178° South 478 550 37,000  Level Fort Worth Center
12:13PM 33.9261 -96.9128 180° South 473 544 37,000  Level Fort Worth Center
12:14PM 33.7967 -96.9111 179° South 473 544 37,000  Level Fort Worth Center
12:15PM 33.6694 -96.9119 180° South 467 537 37,000  Level Fort Worth Center
12:16PM 33.5378 -96.9100 179° South 462 532 37,000  Level Fort Worth Center
12:17PM 33.4106 -96.9108 180° South 457 526 37,000  Level Fort Worth Center
12:18PM 33.2917 -96.9064 178° South 463 533 37,000  Level Fort Worth Center
12:19PM 33.1497 -96.9072 180° South 468 539 37,000  Level Fort Worth Center
12:20PM 33.0347 -96.9053 179° South 457 526 37,000  Level Fort Worth Center
12:21PM 32.8969 -96.9014 179° South 457 526 37,000  Level Fort Worth Center
12:22PM 32.7842 -96.8722 168° South 463 533 37,000  Level Fort Worth Center
12:23PM 32.6464 -96.8361 168° South 463 533 37,000  Level Fort Worth Center
12:24PM 32.5144 -96.8000 167° South 475 547 37,000  Level Fort Worth Center
12:25PM 32.3892 -96.7614 165° South 475 547 37,000  Level Fort Worth Center
12:26PM 32.2553 -96.7256 167° South 475 547 37,000  Level Fort Worth Center
12:27PM 32.1278 -96.6847 165° South 480 552 37,000  Level Fort Worth Center
12:28PM 31.9961 -96.6467 166° South 480 552 37,000 -120 Level Fort Worth Center
12:30PM 31.8056 -96.5947 167° South 481 554 36,800 -360 Descending Houston Center
12:30PM 31.7344 -96.5731 165° South 478 550 36,300 -1,500 Descending Fort Worth Center
12:31PM 31.6092 -96.5400 167° South 478 550 34,700 -1,500 Descending Fort Worth Center
12:32PM 31.5436 -96.5197 165° South 474 545 33,900 -1,800 Descending Houston Center
12:33PM 31.4133 -96.4736 163° South 480 552 31,800 -1,440 Descending Houston Center
12:34PM 31.2836 -96.4233 162° South 485 558 31,000 -420 Descending Houston Center
12:35PM 31.1392 -96.3289 151° Southeast 503 579 31,000 -660 Level Houston Center
12:36PM 31.0186 -96.2467 150° Southeast 497 572 29,700 -1,680 Descending Houston Center
12:37PM 30.9006 -96.1647 149° Southeast 489 563 27,600 -2,700 Descending Houston Center
12:38PM 30.7822 -96.0850 150° Southeast 486 559 24,200 -3,540 Descending Houston Center
12:39PM 30.6697 -96.0086 150° Southeast 464 534 20,400 -4,020 Descending Houston Center
12:40PM 30.5578 -95.9331 150° Southeast 431 496 16,000 -4,200 Descending Houston Center
12:40PM 30.5200 -95.9086 151° Southeast 424 488 14,700 -3,180 Descending Houston Center
12:41PM 30.4606 -95.8664 149° Southeast 409 471 12,700 -2,520 Descending Houston Center
12:41PM 30.4300 -95.8392 142° Southeast 380 437 12,100 -720 Descending Houston Center
12:42PM 30.3794 -95.7856 138° Southeast 387 445 12,000 -120 Descending Houston Center
12:42PM 30.3447 -95.7497 138° Southeast 405 466 12,000 -1,020 Level Houston Center
12:43PM 30.3019 -95.7044 138° Southeast 376 433 11,000 -1,680 Descending Houston Center
12:43PM 30.2753 -95.6781 139° Southeast 331 381 10,300 -1,980 Descending Houston Center
12:44PM 30.2356 -95.6350 137° Southeast 324 373 9,000 -1,980 Descending Houston Center
12:45PM 30.2014 -95.6022 140° Southeast 300 345 8,100 -1,980 Descending Houston Center
12:46PM 30.1458 -95.5436 138° Southeast 290 334 6,500 -1,260 Descending Houston Center
12:46PM 30.1108 -95.4875 126° Southeast 298 343 6,000 -540 Descending Houston Center
12:47PM 30.1050 -95.4639 106° East 298 343 6,000 -120 Level Houston Center
12:47PM 30.1058 -95.3919 89° East 303 349 5,900  Descending Houston Center
12:48PM 30.1061 -95.3600 89° East 299 344 6,000  Climbing Houston Center
12:48PM 30.1069 -95.2975 89° East 296 341 5,900 -840 Descending Houston Center
12:49PM 30.1056 -95.2042 91° East 290 334 4,500 -1,800 Descending Houston Center
12:50PM 30.0561 -95.1606 143° Southeast 269 310 2,300 -2,160 Descending Houston Center